Time;durP1;ratioP1;P1;durP2;ratioP2;P2;SDS_P1;SDS_P2;PMS_P1;PMS_P2;Temp;Humidity;BMP_temperature;BMP_pressure;BME280_temperature;BME280_humidity;BME280_pressure;Samples;Min_cycle;Max_cycle;Signal;HPM_P1;HPM_P2
2023/01/22 00:02:50;;;;;;;6.53;4.30;;;0.60;99.90;;;;;;7734987;28;20567;-92
2023/01/22 00:06:35;;;;;;;6.47;4.60;;;0.60;99.90;;;;;;7734694;28;20215;-92
2023/01/22 00:10:21;;;;;;;6.77;3.77;;;0.40;99.90;;;;;;7735100;28;20203;-92
2023/01/22 00:14:07;;;;;;;7.27;4.30;;;0.50;99.90;;;;;;7734725;28;20221;-92
2023/01/22 00:17:53;;;;;;;6.33;4.10;;;0.50;99.90;;;;;;7734737;28;20184;-92
2023/01/22 00:21:38;;;;;;;7.27;4.00;;;0.50;99.90;;;;;;7734648;28;20206;-92
2023/01/22 00:25:24;;;;;;;6.70;4.30;;;0.50;99.90;;;;;;7706623;28;20181;-92
2023/01/22 00:29:10;;;;;;;6.53;4.20;;;0.50;99.90;;;;;;7704314;28;20189;-92
2023/01/22 00:32:56;;;;;;;6.77;4.20;;;0.50;99.90;;;;;;7704181;28;20359;-91
2023/01/22 00:36:42;;;;;;;6.33;4.00;;;0.50;99.90;;;;;;7704031;28;20173;-92
2023/01/22 00:40:30;;;;;;;9.40;4.23;;;0.50;99.90;;;;;;7703877;28;20219;-92
2023/01/22 00:44:16;;;;;;;8.30;4.60;;;0.50;99.90;;;;;;7703786;28;20200;-92
2023/01/22 00:48:01;;;;;;;8.60;4.93;;;0.60;99.90;;;;;;7703483;28;20188;-92
2023/01/22 00:51:47;;;;;;;9.33;5.03;;;0.50;99.90;;;;;;7703219;28;20226;-92
2023/01/22 00:55:59;;;;;;;8.60;4.97;;;0.50;99.90;;;;;;7707448;28;20602;-92
2023/01/22 00:59:45;;;;;;;8.70;5.20;;;0.50;99.90;;;;;;7733629;28;20212;-92
2023/01/22 01:03:31;;;;;;;8.03;4.67;;;0.50;99.90;;;;;;7733445;28;20207;-91
2023/01/22 01:07:16;;;;;;;8.03;5.00;;;0.60;99.90;;;;;;7733187;28;20180;-92
2023/01/22 01:11:05;;;;;;;9.90;5.23;;;0.60;99.90;;;;;;7728771;28;20299;-92
2023/01/22 01:14:50;;;;;;;12.40;5.40;;;0.60;99.90;;;;;;7719206;28;20232;-91
2023/01/22 01:18:36;;;;;;;9.93;5.57;;;0.60;99.90;;;;;;7727109;28;20211;-92
2023/01/22 01:22:22;;;;;;;16.97;5.57;;;0.60;99.90;;;;;;7732889;28;20255;-92
2023/01/22 01:26:10;;;;;;;8.93;5.23;;;0.60;99.90;;;;;;7732919;28;20227;-92
2023/01/22 01:29:56;;;;;;;10.63;5.17;;;0.60;99.90;;;;;;7734936;28;20261;-92
2023/01/22 01:33:42;;;;;;;7.57;4.87;;;0.60;99.90;;;;;;7742473;28;20734;-92
2023/01/22 01:37:37;;;;;;;9.37;5.57;;;0.50;99.90;;;;;;7729278;28;20568;-91
2023/01/22 01:41:25;;;;;;;7.50;4.77;;;0.60;99.90;;;;;;7742201;28;20207;-92
2023/01/22 01:45:19;;;;;;;8.30;5.10;;;0.60;99.90;;;;;;7750092;28;20183;-92
2023/01/22 01:49:32;;;;;;;8.13;4.80;;;0.50;99.90;;;;;;7748484;28;20333;-92
2023/01/22 01:53:18;;;;;;;7.93;5.00;;;0.60;99.90;;;;;;7732185;28;20250;-92
2023/01/22 01:57:21;;;;;;;6.87;4.60;;;0.60;99.90;;;;;;7732032;28;20653;-91
2023/01/22 02:01:12;;;;;;;8.57;5.23;;;0.60;99.90;;;;;;7744045;28;20181;-92
2023/01/22 02:04:58;;;;;;;7.20;4.83;;;0.60;99.90;;;;;;7750746;28;20672;-93
2023/01/22 02:08:47;;;;;;;7.90;5.20;;;0.60;99.90;;;;;;7749211;28;20741;-92
2023/01/22 02:12:33;;;;;;;8.67;5.10;;;0.60;99.90;;;;;;7726795;28;20227;-92
2023/01/22 02:16:19;;;;;;;8.47;4.93;;;0.50;99.90;;;;;;7731315;28;20266;-92
2023/01/22 02:20:47;;;;;;;8.37;5.07;;;0.60;99.90;;;;;;7731078;28;20195;-92
2023/01/22 02:24:32;;;;;;;7.10;4.90;;;0.60;99.90;;;;;;7728136;28;20283;-92
2023/01/22 02:32:07;;;;;;;9.10;5.20;;;0.60;99.90;;;;;;7814014;28;20231;-91
2023/01/22 02:35:53;;;;;;;9.30;5.33;;;0.60;99.90;;;;;;7790787;28;20182;-88
2023/01/22 02:39:39;;;;;;;11.30;5.80;;;0.60;99.90;;;;;;7790452;28;20194;-88
2023/01/22 02:43:24;;;;;;;9.20;5.30;;;0.60;99.90;;;;;;7790007;28;20193;-90
2023/01/22 02:47:10;;;;;;;11.33;6.27;;;0.60;99.90;;;;;;7777079;28;20183;-90
2023/01/22 02:50:56;;;;;;;9.70;6.17;;;0.60;99.90;;;;;;7760135;28;20218;-90
2023/01/22 02:54:41;;;;;;;9.00;5.53;;;0.50;99.90;;;;;;7759854;28;20175;-89
2023/01/22 02:58:27;;;;;;;12.70;6.70;;;0.60;99.90;;;;;;7778787;28;20198;-91
2023/01/22 03:02:12;;;;;;;12.20;6.67;;;0.60;99.90;;;;;;7786346;28;20195;-91
2023/01/22 03:05:58;;;;;;;9.97;6.63;;;0.60;99.90;;;;;;7759390;28;20229;-90
2023/01/22 03:09:44;;;;;;;13.67;6.73;;;0.60;99.90;;;;;;7758718;28;20214;-88
2023/01/22 03:21:42;;;;;;;11.13;6.27;;;0.60;99.90;;;;;;7777181;28;20195;-90
2023/01/22 03:25:28;;;;;;;16.83;7.00;;;0.50;99.90;;;;;;7758377;28;20801;-90
2023/01/22 03:29:14;;;;;;;13.20;6.73;;;0.60;99.90;;;;;;7758545;28;20586;-90
2023/01/22 03:32:59;;;;;;;12.93;6.50;;;0.60;99.90;;;;;;7759092;28;20219;-89
2023/01/22 03:36:45;;;;;;;13.57;7.10;;;0.60;99.90;;;;;;7775665;28;20275;-89
2023/01/22 03:40:31;;;;;;;10.33;6.00;;;0.60;99.90;;;;;;7758509;28;20242;-88
2023/01/22 03:44:17;;;;;;;11.37;6.80;;;0.70;99.90;;;;;;7758692;28;20183;-90
2023/01/22 03:48:03;;;;;;;13.10;6.30;;;0.60;99.90;;;;;;7758257;28;20226;-90
2023/01/22 03:51:49;;;;;;;12.07;6.13;;;0.60;99.90;;;;;;7758765;28;20210;-89
2023/01/22 03:55:34;;;;;;;13.70;6.60;;;0.60;99.90;;;;;;7758480;28;20182;-89
2023/01/22 03:59:20;;;;;;;13.63;6.83;;;0.60;99.90;;;;;;7775895;28;20771;-89
2023/01/22 04:03:06;;;;;;;12.23;7.00;;;0.60;99.90;;;;;;7758888;28;20248;-91
2023/01/22 04:06:51;;;;;;;10.97;6.63;;;0.70;99.90;;;;;;7757990;28;20765;-91
2023/01/22 04:10:37;;;;;;;13.57;7.17;;;0.60;99.90;;;;;;7768403;28;20704;-90
2023/01/22 04:14:22;;;;;;;14.70;7.07;;;0.60;99.90;;;;;;7806426;28;20187;-89
2023/01/22 04:18:08;;;;;;;10.53;6.03;;;0.60;99.90;;;;;;7805948;28;20277;-91
2023/01/22 04:21:55;;;;;;;11.10;6.73;;;0.80;99.90;;;;;;7788354;28;20233;-90
2023/01/22 04:25:41;;;;;;;13.17;6.53;;;0.70;99.90;;;;;;7788911;28;20183;-91
2023/01/22 04:29:26;;;;;;;13.37;6.20;;;0.60;99.90;;;;;;7788421;28;20297;-92
2023/01/22 04:33:12;;;;;;;13.37;6.77;;;0.60;99.90;;;;;;7784083;28;20222;-91
2023/01/22 04:36:58;;;;;;;15.13;7.33;;;0.70;99.90;;;;;;7791987;28;20225;-90
2023/01/22 04:40:44;;;;;;;12.57;6.60;;;0.70;99.90;;;;;;7792971;28;20210;-90
2023/01/22 04:44:30;;;;;;;12.33;5.93;;;0.70;99.90;;;;;;7811883;28;20559;-89
2023/01/22 04:48:15;;;;;;;11.67;6.50;;;0.70;99.90;;;;;;7791680;28;20190;-90
2023/01/22 04:52:01;;;;;;;12.07;6.60;;;0.70;99.90;;;;;;7788439;28;20202;-90
2023/01/22 04:55:47;;;;;;;13.97;6.97;;;0.70;99.90;;;;;;7791580;28;20186;-89
2023/01/22 04:59:32;;;;;;;11.90;6.07;;;0.70;99.90;;;;;;7790647;28;20238;-90
2023/01/22 05:03:18;;;;;;;13.90;7.00;;;0.80;99.90;;;;;;7791751;28;20233;-90
2023/01/22 05:07:04;;;;;;;13.50;6.27;;;0.70;99.90;;;;;;7792553;28;20208;-91
2023/01/22 05:10:53;;;;;;;12.50;6.50;;;0.70;99.90;;;;;;7811203;28;20206;-90
2023/01/22 05:14:39;;;;;;;16.07;8.37;;;0.70;99.90;;;;;;7811005;28;20203;-90
2023/01/22 05:18:25;;;;;;;21.57;9.70;;;0.70;99.90;;;;;;7784659;28;20205;-91
2023/01/22 05:22:10;;;;;;;40.87;21.17;;;0.70;99.90;;;;;;7787641;28;20240;-91
2023/01/22 05:25:56;;;;;;;30.00;15.87;;;0.70;99.90;;;;;;7788333;28;20609;-90
2023/01/22 05:29:42;;;;;;;27.73;15.17;;;0.70;99.90;;;;;;7794879;28;20679;-90
2023/01/22 05:33:31;;;;;;;73.37;26.13;;;0.70;99.90;;;;;;7792929;28;20222;-91
2023/01/22 05:37:16;;;;;;;41.53;17.20;;;0.70;99.90;;;;;;7792056;28;20199;-90
2023/01/22 05:41:02;;;;;;;30.53;12.77;;;0.70;99.90;;;;;;7793297;28;20198;-90
2023/01/22 05:44:48;;;;;;;32.60;15.33;;;0.70;99.90;;;;;;7824616;28;20179;-88
2023/01/22 05:48:34;;;;;;;16.10;8.60;;;0.70;99.90;;;;;;7833515;28;20197;-86
2023/01/22 05:52:20;;;;;;;30.60;11.93;;;0.70;99.90;;;;;;7835482;28;20221;-90
2023/01/22 05:56:06;;;;;;;282.07;79.90;;;0.80;99.90;;;;;;7795567;28;20557;-91
2023/01/22 05:59:51;;;;;;;107.33;35.07;;;0.70;99.90;;;;;;7810318;28;20206;-90
2023/01/22 06:03:38;;;;;;;69.73;23.77;;;0.70;99.90;;;;;;7791536;28;20234;-90
2023/01/22 06:07:24;;;;;;;90.87;36.40;;;0.80;99.90;;;;;;7791514;28;20228;-89
2023/01/22 06:11:13;;;;;;;29.53;14.83;;;0.70;99.90;;;;;;7790582;28;20207;-90
2023/01/22 06:14:59;;;;;;;90.13;34.90;;;0.70;99.90;;;;;;7789170;28;20187;-89
2023/01/22 06:18:44;;;;;;;119.13;35.57;;;0.70;99.90;;;;;;7791505;28;20910;-91
2023/01/22 06:22:30;;;;;;;102.40;37.43;;;0.70;99.90;;;;;;7792027;28;20186;-91
2023/01/22 06:26:15;;;;;;;60.27;25.47;;;0.80;99.90;;;;;;7791584;28;20182;-91
2023/01/22 06:30:01;;;;;;;64.37;25.57;;;0.70;99.90;;;;;;7790520;28;20229;-91
2023/01/22 06:33:48;;;;;;;46.57;20.43;;;0.70;99.90;;;;;;7789810;28;20179;-91
2023/01/22 06:37:33;;;;;;;52.53;28.27;;;0.60;99.90;;;;;;7791334;28;20178;-91
2023/01/22 06:41:19;;;;;;;57.30;33.40;;;0.80;99.90;;;;;;7791715;28;20198;-91
2023/01/22 06:45:06;;;;;;;33.20;21.20;;;0.70;99.90;;;;;;7791341;28;20182;-91
2023/01/22 06:48:51;;;;;;;40.63;24.97;;;0.70;99.90;;;;;;7791954;28;20298;-92
2023/01/22 06:52:37;;;;;;;30.13;16.13;;;0.70;99.90;;;;;;7791120;28;20210;-91
2023/01/22 06:56:22;;;;;;;18.20;10.17;;;0.70;99.90;;;;;;7767514;28;20175;-91
2023/01/22 07:00:09;;;;;;;18.63;9.63;;;0.80;99.90;;;;;;7760051;28;20199;-90
2023/01/22 07:03:55;;;;;;;20.27;10.37;;;0.70;99.90;;;;;;7764979;28;20241;-91
2023/01/22 07:07:41;;;;;;;21.60;10.57;;;0.90;99.90;;;;;;7807965;28;20194;-91
2023/01/22 07:11:27;;;;;;;21.20;9.53;;;0.80;99.90;;;;;;7790353;28;20218;-91
2023/01/22 07:15:13;;;;;;;23.83;11.17;;;0.80;99.90;;;;;;7790577;28;20587;-91
2023/01/22 07:18:59;;;;;;;14.77;8.50;;;0.70;99.90;;;;;;7807720;28;20221;-90
2023/01/22 07:22:45;;;;;;;18.67;8.77;;;0.70;99.90;;;;;;7790371;28;20202;-90
2023/01/22 07:26:30;;;;;;;21.00;10.63;;;0.70;99.90;;;;;;7790230;28;20265;-91
2023/01/22 07:30:16;;;;;;;16.73;9.13;;;0.80;99.90;;;;;;7789559;28;20225;-91
2023/01/22 07:34:03;;;;;;;17.93;8.47;;;0.70;99.90;;;;;;7790489;28;20269;-90
2023/01/22 07:37:53;;;;;;;19.00;9.57;;;0.70;99.90;;;;;;7785714;28;20171;-90
2023/01/22 07:41:39;;;;;;;23.37;11.33;;;0.80;99.90;;;;;;7773862;28;20210;-88
2023/01/22 07:45:30;;;;;;;48.37;21.60;;;1.20;99.90;;;;;;7789644;28;20190;-90
2023/01/22 07:49:40;;;;;;;19.83;10.87;;;1.50;99.90;;;;;;7789161;28;20244;-91
2023/01/22 07:53:28;;;;;;;36.23;15.90;;;1.80;99.90;;;;;;7786687;28;20245;-89
2023/01/22 07:57:15;;;;;;;33.63;16.87;;;2.10;99.90;;;;;;7806056;28;20179;-90
2023/01/22 08:01:14;;;;;;;42.93;21.57;;;2.20;99.90;;;;;;7789414;28;20194;-91
2023/01/22 08:05:01;;;;;;;22.60;13.30;;;2.20;99.90;;;;;;7790663;28;20187;-91
2023/01/22 08:08:46;;;;;;;21.13;11.47;;;2.40;99.90;;;;;;7790360;28;20198;-90
2023/01/22 08:12:32;;;;;;;15.93;8.83;;;2.40;99.90;;;;;;7795195;28;20667;-90
2023/01/22 08:16:18;;;;;;;17.50;9.57;;;2.40;99.90;;;;;;7815845;28;20182;-89
2023/01/22 08:20:05;;;;;;;19.23;10.37;;;2.50;99.90;;;;;;7812304;28;20297;-90
2023/01/22 08:23:51;;;;;;;18.83;9.83;;;2.40;99.90;;;;;;7799848;28;20217;-90
2023/01/22 08:27:37;;;;;;;18.37;9.07;;;2.40;99.90;;;;;;7804273;28;20725;-91
2023/01/22 08:31:23;;;;;;;18.97;10.43;;;2.50;99.90;;;;;;7807202;28;20218;-88
2023/01/22 08:35:09;;;;;;;21.83;10.90;;;2.50;99.90;;;;;;7793408;28;20179;-91
2023/01/22 08:38:55;;;;;;;22.20;11.23;;;2.50;99.90;;;;;;7802419;28;20215;-91
2023/01/22 08:42:40;;;;;;;20.63;11.20;;;2.50;99.90;;;;;;7803550;28;20186;-91
2023/01/22 08:46:26;;;;;;;27.03;13.17;;;2.40;99.90;;;;;;7794989;28;20197;-91
2023/01/22 08:50:12;;;;;;;23.17;12.07;;;2.40;99.90;;;;;;7794323;28;20218;-89
2023/01/22 08:54:00;;;;;;;23.47;12.07;;;2.50;99.90;;;;;;7766626;28;20190;-91
2023/01/22 08:57:54;;;;;;;24.53;12.90;;;2.50;99.90;;;;;;7764400;28;20824;-90
2023/01/22 09:01:40;;;;;;;22.87;12.23;;;2.50;99.90;;;;;;7773618;28;20218;-90
2023/01/22 09:05:37;;;;;;;21.10;11.10;;;2.50;99.90;;;;;;7787109;28;20187;-91
2023/01/22 09:09:23;;;;;;;23.40;10.50;;;2.50;99.90;;;;;;7771330;28;20195;-91
2023/01/22 09:13:17;;;;;;;30.37;14.20;;;2.40;99.90;;;;;;7774641;28;20209;-90
2023/01/22 09:17:03;;;;;;;34.20;18.27;;;2.50;99.90;;;;;;7791029;28;20200;-90
2023/01/22 09:20:49;;;;;;;28.00;15.03;;;2.50;99.90;;;;;;7769837;28;20715;-90
2023/01/22 09:24:35;;;;;;;21.97;10.77;;;2.40;99.90;;;;;;7791755;28;20182;-90
2023/01/22 09:28:21;;;;;;;23.37;11.10;;;2.40;99.90;;;;;;7805063;28;20207;-90
2023/01/22 09:32:07;;;;;;;25.23;12.93;;;2.40;99.90;;;;;;7788308;28;20694;-90
2023/01/22 09:35:53;;;;;;;20.97;10.83;;;2.30;99.90;;;;;;7784710;28;20205;-90
2023/01/22 09:39:49;;;;;;;21.90;11.70;;;2.20;99.90;;;;;;7792258;28;20233;-90
2023/01/22 09:44:03;;;;;;;25.40;12.73;;;2.20;99.90;;;;;;7783608;28;20678;-89
2023/01/22 09:47:53;;;;;;;23.53;12.07;;;2.20;99.90;;;;;;7773861;28;20767;-91
2023/01/22 09:51:39;;;;;;;26.63;14.17;;;2.30;99.90;;;;;;7788395;28;20199;-91
2023/01/22 09:55:29;;;;;;;27.63;14.00;;;2.30;99.90;;;;;;7765716;28;20190;-90
2023/01/22 09:59:26;;;;;;;29.07;14.70;;;2.40;99.90;;;;;;7786126;28;20292;-91
2023/01/22 10:03:32;;;;;;;27.07;14.50;;;2.30;99.90;;;;;;7784905;28;20799;-91
2023/01/22 10:07:31;;;;;;;27.10;15.40;;;2.20;99.90;;;;;;7776162;28;20194;-90
2023/01/22 10:11:17;;;;;;;28.40;15.40;;;2.20;99.90;;;;;;7794996;28;20209;-91
2023/01/22 10:15:03;;;;;;;29.50;15.40;;;2.20;99.90;;;;;;7784422;28;20186;-91
2023/01/22 10:19:00;;;;;;;27.63;15.60;;;2.20;99.90;;;;;;7785864;28;20289;-91
2023/01/22 10:22:47;;;;;;;29.40;15.70;;;2.10;99.90;;;;;;7789177;28;20183;-91
2023/01/22 10:26:37;;;;;;;28.37;14.40;;;2.20;99.90;;;;;;7787178;28;20193;-91
2023/01/22 10:30:28;;;;;;;32.93;15.33;;;2.20;99.90;;;;;;7781152;28;20234;-90
2023/01/22 10:34:38;;;;;;;27.23;14.57;;;2.30;99.90;;;;;;7781957;28;20232;-89
2023/01/22 10:38:26;;;;;;;187.60;34.20;;;2.10;99.90;;;;;;7810992;28;20251;-88
2023/01/22 10:42:24;;;;;;;149.30;36.00;;;2.20;99.90;;;;;;7794491;28;20258;-89
2023/01/22 10:46:23;;;;;;;58.17;23.87;;;2.30;99.90;;;;;;7789683;28;20189;-91
2023/01/22 10:50:14;;;;;;;38.70;20.03;;;2.10;99.90;;;;;;7791077;28;20199;-91
2023/01/22 10:54:00;;;;;;;42.53;20.67;;;2.10;99.90;;;;;;7807637;28;20171;-89
2023/01/22 10:57:53;;;;;;;42.80;21.57;;;2.10;99.90;;;;;;7790420;28;20203;-89
2023/01/22 11:01:47;;;;;;;38.33;18.97;;;2.10;99.90;;;;;;7791554;28;20244;-90
2023/01/22 11:05:36;;;;;;;38.07;20.40;;;2.10;99.90;;;;;;7784561;28;20182;-91
2023/01/22 11:09:33;;;;;;;42.30;19.97;;;2.10;99.90;;;;;;7777243;28;20212;-88
2023/01/22 11:13:41;;;;;;;33.17;18.00;;;2.10;99.90;;;;;;7778090;28;20257;-88
2023/01/22 11:17:36;;;;;;;30.87;17.13;;;2.10;99.90;;;;;;7770553;28;20199;-88
2023/01/22 11:21:30;;;;;;;32.50;18.47;;;2.10;99.90;;;;;;7781535;28;20219;-88
2023/01/22 11:25:15;;;;;;;34.33;17.63;;;1.90;99.90;;;;;;7788690;28;20231;-88
2023/01/22 11:29:15;;;;;;;28.97;17.43;;;2.10;99.90;;;;;;7795116;28;20218;-86
2023/01/22 11:33:06;;;;;;;31.03;15.23;;;2.00;99.90;;;;;;7829326;28;20202;-87
2023/01/22 11:36:58;;;;;;;26.57;15.47;;;2.00;99.90;;;;;;7831329;28;20373;-88
2023/01/22 11:40:53;;;;;;;26.00;13.60;;;2.00;99.90;;;;;;7816078;28;20260;-90
2023/01/22 11:45:06;;;;;;;27.00;13.80;;;2.00;99.90;;;;;;7791255;28;20174;-90
2023/01/22 11:49:28;;;;;;;23.10;12.93;;;1.90;99.90;;;;;;7790168;28;20202;-91
2023/01/22 11:53:37;;;;;;;34.00;15.73;;;1.90;99.90;;;;;;7634663;29;20241;-90
2023/01/22 11:57:31;;;;;;;30.70;16.17;;;1.90;99.90;;;;;;7647304;29;20206;-89
2023/01/22 12:01:19;;;;;;;31.53;16.20;;;1.80;99.90;;;;;;7637956;29;20206;-90
2023/01/22 12:05:13;;;;;;;36.70;17.57;;;1.80;99.90;;;;;;7634613;29;20190;-89
2023/01/22 12:09:12;;;;;;;34.70;17.27;;;1.70;99.90;;;;;;7635963;29;20225;-90
2023/01/22 12:13:04;;;;;;;37.07;18.40;;;1.80;99.90;;;;;;7631968;29;20217;-88
2023/01/22 12:16:52;;;;;;;34.60;18.77;;;1.80;99.90;;;;;;7657040;29;20204;-90
2023/01/22 12:20:57;;;;;;;36.07;18.83;;;1.80;99.90;;;;;;7646140;29;20212;-89
2023/01/22 16:05:20;;;;;;;25.90;14.50;;;2.50;99.90;;;;;;7834796;28;20296;-88
2023/01/22 16:09:08;;;;;;;28.20;13.57;;;2.60;99.90;;;;;;7804295;28;20252;-88
2023/01/22 16:12:59;;;;;;;26.97;13.20;;;2.70;99.90;;;;;;7791534;28;20296;-88
2023/01/22 16:16:45;;;;;;;25.43;12.20;;;2.80;99.90;;;;;;7796971;28;20182;-88
2023/01/22 16:20:30;;;;;;;43.63;17.07;;;2.80;99.90;;;;;;7789079;28;20724;-88
2023/01/22 16:24:16;;;;;;;51.57;25.77;;;2.80;99.90;;;;;;7789607;28;20182;-88
2023/01/22 16:28:02;;;;;;;42.27;20.73;;;2.90;99.90;;;;;;7806968;28;20675;-88
2023/01/22 16:31:47;;;;;;;32.47;17.07;;;2.80;99.90;;;;;;7790508;28;20246;-88
2023/01/22 16:35:33;;;;;;;36.77;16.90;;;2.80;99.90;;;;;;7794992;28;20178;-88
2023/01/22 16:39:21;;;;;;;37.43;19.90;;;2.90;99.90;;;;;;7825426;28;20209;-89
2023/01/22 16:43:07;;;;;;;24.13;12.80;;;2.70;99.90;;;;;;7825530;28;20186;-88
2023/01/22 16:46:55;;;;;;;23.13;13.50;;;2.70;99.90;;;;;;7806816;28;20193;-88
2023/01/22 16:50:44;;;;;;;25.77;12.10;;;2.70;99.90;;;;;;7806352;28;20686;-88
2023/01/22 16:54:33;;;;;;;25.37;13.20;;;2.70;99.90;;;;;;7835124;28;20181;-87
2023/01/22 16:58:19;;;;;;;24.63;13.33;;;2.70;99.90;;;;;;7824538;28;20195;-88
2023/01/22 17:02:11;;;;;;;27.77;14.07;;;2.70;99.90;;;;;;7824935;28;20277;-87
2023/01/22 17:05:57;;;;;;;18.90;11.40;;;2.80;99.90;;;;;;7837579;28;20192;-87
2023/01/22 17:09:42;;;;;;;20.80;12.17;;;2.70;99.90;;;;;;7850816;28;20213;-88
2023/01/22 17:13:29;;;;;;;21.60;11.83;;;2.70;99.90;;;;;;7853603;28;20207;-87
2023/01/22 17:17:15;;;;;;;23.00;11.83;;;2.70;99.90;;;;;;7836279;28;20179;-86
2023/01/22 17:21:05;;;;;;;18.67;11.30;;;2.70;99.90;;;;;;7812782;28;20210;-86
2023/01/22 17:24:51;;;;;;;20.23;10.93;;;2.70;99.90;;;;;;7811062;28;20191;-87
2023/01/22 17:28:38;;;;;;;21.97;10.57;;;2.70;99.90;;;;;;7809133;28;20292;-87
2023/01/22 17:32:25;;;;;;;20.37;11.30;;;2.60;99.90;;;;;;7823655;28;20272;-87
2023/01/22 17:36:13;;;;;;;19.53;10.63;;;2.60;99.90;;;;;;7823944;28;20655;-87
2023/01/22 17:39:59;;;;;;;20.87;10.80;;;2.70;99.90;;;;;;7823322;28;20562;-87
2023/01/22 17:43:46;;;;;;;20.20;11.37;;;2.70;99.90;;;;;;7821428;28;20190;-88
2023/01/22 17:47:31;;;;;;;22.30;11.83;;;2.60;99.90;;;;;;7823579;28;20253;-87
2023/01/22 17:51:23;;;;;;;22.33;12.40;;;2.60;99.90;;;;;;7822915;28;20218;-87
2023/01/22 17:55:09;;;;;;;22.53;13.27;;;2.50;99.90;;;;;;7806455;28;20185;-86
2023/01/22 17:58:56;;;;;;;21.67;12.47;;;2.50;99.90;;;;;;7819945;28;20273;-87
2023/01/22 18:02:42;;;;;;;26.07;17.03;;;2.40;99.90;;;;;;7836118;28;20572;-87
2023/01/22 18:06:28;;;;;;;27.33;15.63;;;2.50;99.90;;;;;;7825707;28;20240;-87
2023/01/22 18:10:14;;;;;;;31.63;18.50;;;2.50;99.90;;;;;;7826243;28;20270;-88
2023/01/22 18:14:15;;;;;;;25.57;16.93;;;2.50;99.90;;;;;;7827494;28;20182;-86
2023/01/22 18:18:01;;;;;;;23.83;15.53;;;2.50;99.90;;;;;;7837236;28;20185;-86
2023/01/22 18:21:46;;;;;;;19.50;12.67;;;2.40;99.90;;;;;;7831005;28;20202;-87
2023/01/22 18:25:32;;;;;;;20.00;12.80;;;2.40;99.90;;;;;;7821715;28;20216;-89
2023/01/22 18:29:18;;;;;;;19.57;11.27;;;2.50;99.90;;;;;;7813949;28;20214;-89
2023/01/22 18:41:53;;;;;;;22.47;13.30;;;2.40;99.90;;;;;;8120647;23;20259;-89
2023/01/22 18:45:39;;;;;;;19.57;11.77;;;2.40;99.90;;;;;;7832282;28;20281;-89
2023/01/22 18:49:26;;;;;;;15.63;9.83;;;2.30;99.90;;;;;;7836441;28;20178;-89
2023/01/22 18:53:14;;;;;;;16.37;10.27;;;2.40;99.90;;;;;;7837187;28;20213;-89
2023/01/22 18:57:00;;;;;;;20.33;12.30;;;2.30;99.90;;;;;;7836803;28;20178;-89
2023/01/22 19:00:45;;;;;;;15.70;9.93;;;2.40;99.90;;;;;;7836878;28;20196;-88
2023/01/22 19:04:32;;;;;;;14.00;9.20;;;2.30;99.90;;;;;;7837640;28;20229;-88
2023/01/22 19:08:17;;;;;;;12.07;7.53;;;2.30;99.90;;;;;;7837514;28;20185;-87
2023/01/22 19:12:05;;;;;;;12.07;7.07;;;2.30;99.90;;;;;;7837533;28;20233;-88
2023/01/22 19:15:51;;;;;;;9.93;6.43;;;2.30;99.90;;;;;;7837366;28;20178;-88
2023/01/22 19:19:37;;;;;;;12.10;7.03;;;2.30;99.90;;;;;;7835725;28;20177;-88
2023/01/22 19:23:22;;;;;;;10.93;7.07;;;2.30;99.90;;;;;;7837429;28;20832;-88
2023/01/22 19:27:08;;;;;;;12.90;7.73;;;2.20;99.90;;;;;;7813786;28;20191;-88
2023/01/22 19:30:54;;;;;;;14.47;8.00;;;2.30;99.90;;;;;;7812372;28;20206;-88
2023/01/22 19:34:41;;;;;;;12.10;7.47;;;2.30;99.90;;;;;;7835698;28;20194;-88
2023/01/22 19:38:27;;;;;;;8.73;5.90;;;2.30;99.90;;;;;;7836025;28;20547;-87
2023/01/22 19:42:14;;;;;;;9.63;6.20;;;2.20;99.90;;;;;;7835542;28;20193;-88
2023/01/22 19:46:06;;;;;;;8.97;6.37;;;2.20;99.90;;;;;;7835913;28;20194;-89
2023/01/22 19:49:51;;;;;;;10.10;6.43;;;2.20;99.90;;;;;;7835381;28;20272;-88
2023/01/22 19:53:37;;;;;;;9.57;6.33;;;2.20;99.90;;;;;;7835070;28;20221;-87
2023/01/22 19:57:23;;;;;;;30.50;21.80;;;2.20;99.90;;;;;;7830872;28;20222;-90
2023/01/22 20:01:10;;;;;;;11.20;7.33;;;2.20;99.90;;;;;;7833913;28;20178;-87
2023/01/22 20:04:56;;;;;;;12.80;7.43;;;2.10;99.90;;;;;;7832839;28;20204;-88
2023/01/22 20:08:42;;;;;;;12.00;7.70;;;2.10;99.90;;;;;;7829931;28;20432;-87
2023/01/22 20:12:28;;;;;;;10.30;6.93;;;2.20;99.90;;;;;;7834564;28;20209;-87
2023/01/22 20:16:20;;;;;;;11.83;7.53;;;2.00;99.90;;;;;;7837559;28;20177;-87
2023/01/22 20:20:07;;;;;;;14.57;8.07;;;2.00;99.90;;;;;;7840914;28;20320;-87
2023/01/22 20:23:53;;;;;;;16.13;8.77;;;2.00;99.90;;;;;;7827429;28;20256;-88
2023/01/22 20:27:39;;;;;;;16.53;10.20;;;2.00;99.90;;;;;;7833622;28;20240;-88
2023/01/22 20:31:24;;;;;;;18.30;11.40;;;2.00;99.90;;;;;;7842155;28;20198;-87
2023/01/22 20:35:14;;;;;;;20.60;12.17;;;2.10;99.90;;;;;;7839171;28;20201;-88
2023/01/22 20:39:07;;;;;;;20.10;11.83;;;2.00;99.90;;;;;;7839241;28;20181;-89
2023/01/22 20:42:52;;;;;;;17.70;11.30;;;2.00;99.90;;;;;;7841871;28;20313;-90
2023/01/22 20:46:43;;;;;;;18.40;10.97;;;2.00;99.90;;;;;;7835864;28;20182;-88
2023/01/22 20:50:29;;;;;;;17.33;9.93;;;2.00;99.90;;;;;;7835545;28;20738;-88
2023/01/22 20:54:14;;;;;;;18.30;10.53;;;2.00;99.90;;;;;;7836241;28;20643;-89
2023/01/22 20:58:00;;;;;;;15.93;9.70;;;2.00;99.90;;;;;;7841470;28;20174;-88
2023/01/22 21:01:46;;;;;;;19.10;10.70;;;2.00;99.90;;;;;;7835057;28;20265;-88
2023/01/22 21:05:37;;;;;;;23.83;11.33;;;2.00;99.90;;;;;;7840734;28;20255;-89
2023/01/22 21:09:26;;;;;;;19.33;10.47;;;1.90;99.90;;;;;;7843529;28;20655;-89
2023/01/22 21:13:12;;;;;;;20.20;11.87;;;2.00;99.90;;;;;;7840571;28;20221;-88
2023/01/22 21:16:58;;;;;;;21.80;13.17;;;1.90;99.90;;;;;;7845707;28;20174;-88
2023/01/22 21:20:43;;;;;;;23.37;13.97;;;2.00;99.90;;;;;;7833516;28;20209;-88
2023/01/22 21:24:33;;;;;;;16.87;10.20;;;2.00;99.90;;;;;;7840383;28;20198;-87
2023/01/22 21:28:19;;;;;;;18.37;10.03;;;1.90;99.90;;;;;;7840069;28;20190;-88
2023/01/22 21:32:04;;;;;;;20.50;11.10;;;1.90;99.90;;;;;;7841345;28;20667;-88
2023/01/22 21:35:50;;;;;;;16.70;9.90;;;1.90;99.90;;;;;;7838521;28;20261;-88
2023/01/22 21:39:38;;;;;;;20.13;10.70;;;1.90;99.90;;;;;;7837970;28;20555;-88
2023/01/22 21:47:28;;;;;;;25.63;13.10;;;1.80;99.90;;;;;;7831049;28;20655;-89
2023/01/22 21:51:14;;;;;;;22.33;13.50;;;1.90;99.90;;;;;;7807276;28;20627;-89
2023/01/22 22:15:24;;;;;;;29.40;13.40;;;1.80;99.90;;;;;;9343974;23;20302;-88
2023/01/22 22:19:10;;;;;;;30.17;14.73;;;1.80;99.90;;;;;;7830290;28;20178;-90
2023/01/22 22:22:55;;;;;;;25.20;13.33;;;1.70;99.90;;;;;;7821962;28;20551;-90
2023/01/22 22:26:41;;;;;;;26.83;13.70;;;1.80;99.90;;;;;;7817311;28;20179;-90
2023/01/22 22:30:27;;;;;;;27.23;13.60;;;1.80;99.90;;;;;;8346192;23;20234;-89
2023/01/22 22:34:12;;;;;;;26.87;13.30;;;1.80;99.90;;;;;;7807734;28;20663;-88
2023/01/22 22:37:58;;;;;;;30.83;14.07;;;1.80;99.90;;;;;;7811755;28;20195;-87
2023/01/22 22:41:44;;;;;;;29.27;13.83;;;1.70;99.90;;;;;;7850387;28;20661;-87
2023/01/22 22:45:29;;;;;;;27.77;13.87;;;1.80;99.90;;;;;;7852841;28;20268;-88
2023/01/22 22:49:15;;;;;;;29.77;14.50;;;1.70;99.90;;;;;;7852409;28;20228;-87
2023/01/22 22:53:01;;;;;;;33.53;15.27;;;1.70;99.90;;;;;;7851259;28;20205;-88
2023/01/22 22:56:47;;;;;;;30.83;15.37;;;1.70;99.90;;;;;;7841260;28;20174;-88
2023/01/22 23:00:33;;;;;;;35.80;18.03;;;1.70;99.90;;;;;;7832904;28;20240;-87
2023/01/22 23:04:19;;;;;;;37.43;19.40;;;1.70;99.90;;;;;;7846607;28;20173;-87
2023/01/22 23:08:04;;;;;;;31.70;15.93;;;1.70;99.90;;;;;;7803105;28;20663;-87
2023/01/22 23:11:52;;;;;;;39.33;21.80;;;1.70;99.90;;;;;;7790696;28;20248;-87
2023/01/22 23:15:37;;;;;;;35.20;17.07;;;1.70;99.90;;;;;;7807807;28;20669;-87
2023/01/22 23:19:25;;;;;;;46.23;24.47;;;1.70;99.90;;;;;;7789764;28;20595;-87
2023/01/22 23:23:11;;;;;;;41.83;21.33;;;1.70;99.90;;;;;;7790345;28;20735;-87
2023/01/22 23:26:56;;;;;;;36.93;18.30;;;1.70;99.90;;;;;;7810437;28;20612;-87
2023/01/22 23:30:42;;;;;;;55.37;26.13;;;1.70;99.90;;;;;;7820326;28;20291;-86
2023/01/22 23:34:28;;;;;;;36.63;17.47;;;1.70;99.90;;;;;;7820513;28;20178;-87
2023/01/22 23:38:13;;;;;;;59.73;29.57;;;1.70;99.90;;;;;;7837781;28;20273;-88
2023/01/22 23:41:59;;;;;;;28.17;14.10;;;1.70;99.90;;;;;;7819614;28;20178;-87
2023/01/22 23:45:44;;;;;;;27.77;13.67;;;1.70;99.90;;;;;;7820397;28;20189;-88
2023/01/22 23:49:30;;;;;;;29.93;15.47;;;1.70;99.90;;;;;;7820112;28;20198;-88
2023/01/22 23:53:16;;;;;;;38.20;19.40;;;1.70;99.90;;;;;;7820309;28;20202;-88
2023/01/22 23:57:02;;;;;;;31.47;14.57;;;1.70;99.90;;;;;;7837666;28;20257;-88
